Time;durP1;ratioP1;P1;durP2;ratioP2;P2;SDS_P1;SDS_P2;PMS_P1;PMS_P2;Temp;Humidity;BMP_temperature;BMP_pressure;BME280_temperature;BME280_humidity;BME280_pressure;Samples;Min_cycle;Max_cycle;Signal;HPM_P1;HPM_P2
2021/06/05 00:00:52;;;;;;;44.00;33.33;;;20.70;80.90;;;;;;5157188;27;20039;-90
2021/06/05 00:03:18;;;;;;;44.97;34.13;;;20.70;80.50;;;;;;5157072;27;20051;-90
2021/06/05 00:05:49;;;;;;;47.63;34.58;;;20.60;79.80;;;;;;5158180;27;20051;-91
2021/06/05 00:08:17;;;;;;;45.80;34.22;;;20.60;79.50;;;;;;5169840;27;20046;-87
2021/06/05 00:10:49;;;;;;;43.45;33.40;;;20.50;79.80;;;;;;5180522;27;20489;-89
2021/06/05 00:13:21;;;;;;;41.67;31.27;;;20.40;81.30;;;;;;5179532;27;20042;-89
2021/06/05 00:15:47;;;;;;;42.97;32.25;;;20.40;81.40;;;;;;5180537;27;20046;-90
2021/06/05 00:18:14;;;;;;;42.38;31.00;;;20.40;81.30;;;;;;5177962;27;20065;-89
2021/06/05 00:20:41;;;;;;;41.13;31.02;;;20.30;81.70;;;;;;5180683;27;20098;-89
2021/06/05 00:23:10;;;;;;;41.40;31.30;;;20.30;81.80;;;;;;5178462;27;20042;-89
2021/06/05 00:25:36;;;;;;;43.90;31.98;;;20.30;81.60;;;;;;5176867;27;20452;-89
2021/06/05 00:28:02;;;;;;;43.22;31.50;;;20.30;81.50;;;;;;5170471;27;20075;-90
2021/06/05 00:30:28;;;;;;;43.15;32.28;;;20.20;81.10;;;;;;5156196;27;20066;-90
2021/06/05 00:32:54;;;;;;;41.65;30.52;;;20.10;81.30;;;;;;5155034;27;20433;-89
2021/06/05 00:35:22;;;;;;;41.15;30.50;;;20.10;81.60;;;;;;5154960;27;20067;-89
2021/06/05 00:37:47;;;;;;;40.28;29.80;;;20.20;81.80;;;;;;5155555;27;20042;-87
2021/06/05 00:40:17;;;;;;;39.50;28.77;;;20.20;82.70;;;;;;5155454;27;20046;-89
2021/06/05 00:42:43;;;;;;;41.03;28.60;;;20.20;80.80;;;;;;5155949;27;20046;-90
2021/06/05 00:45:11;;;;;;;38.15;28.27;;;20.20;80.20;;;;;;5155099;27;20046;-89
2021/06/05 00:47:37;;;;;;;38.10;27.80;;;20.10;80.70;;;;;;5161191;27;20046;-88
2021/06/05 00:50:06;;;;;;;38.10;27.77;;;20.10;80.90;;;;;;5176442;27;20401;-89
2021/06/05 00:52:33;;;;;;;39.53;27.75;;;20.00;80.90;;;;;;5175565;27;20545;-89
2021/06/05 00:55:00;;;;;;;38.10;27.52;;;20.00;81.40;;;;;;5176135;27;20050;-89
2021/06/05 00:57:26;;;;;;;39.00;26.35;;;19.90;81.90;;;;;;5176309;27;20042;-90
2021/06/05 00:59:52;;;;;;;37.75;27.38;;;19.90;82.00;;;;;;5175193;27;20451;-89
2021/06/05 01:02:17;;;;;;;38.75;27.33;;;19.90;82.00;;;;;;5176414;27;20050;-90
2021/06/05 01:04:43;;;;;;;36.80;26.48;;;19.90;82.00;;;;;;5176267;27;20046;-89
2021/06/05 01:07:30;;;;;;;37.70;27.05;;;19.90;82.20;;;;;;5175148;27;20452;-89
2021/06/05 01:10:03;;;;;;;37.58;27.40;;;19.80;80.60;;;;;;5176237;27;20050;-89
2021/06/05 01:13:02;;;;;;;38.95;26.67;;;19.70;82.40;;;;;;5176260;27;20054;-89
2021/06/05 01:15:40;;;;;;;35.85;26.08;;;19.70;81.70;;;;;;5137941;27;20477;-89
2021/06/05 01:18:23;;;;;;;34.60;26.08;;;19.60;81.70;;;;;;5175985;27;20046;-88
2021/06/05 01:21:49;;;;;;;36.33;25.08;;;19.50;81.90;;;;;;5175656;27;20056;-89
2021/06/05 01:25:05;;;;;;;35.53;25.73;;;19.60;81.60;;;;;;5153276;27;20038;-90
2021/06/05 01:27:35;;;;;;;35.88;25.95;;;19.50;81.00;;;;;;5070042;28;20056;-89
2021/06/05 01:30:23;;;;;;;33.90;24.88;;;19.40;82.60;;;;;;5070737;28;20052;-89
2021/06/05 01:32:50;;;;;;;33.13;23.92;;;19.50;82.80;;;;;;5132188;27;20048;-89
2021/06/05 01:35:36;;;;;;;33.67;24.95;;;19.50;83.30;;;;;;5131391;27;20456;-89
2021/06/05 01:38:03;;;;;;;33.17;24.55;;;19.50;82.80;;;;;;5131373;27;20135;-88
2021/06/05 01:40:30;;;;;;;31.17;24.15;;;19.50;82.50;;;;;;5131563;27;20107;-89
2021/06/05 01:42:58;;;;;;;32.53;23.58;;;19.50;82.70;;;;;;5130546;27;20058;-88
2021/06/05 01:45:30;;;;;;;31.85;23.10;;;19.50;82.60;;;;;;5131362;27;20086;-89
2021/06/05 01:47:57;;;;;;;31.13;23.33;;;19.50;82.50;;;;;;5130944;27;20057;-89
2021/06/05 01:50:28;;;;;;;32.20;23.25;;;19.50;81.90;;;;;;5131158;27;20043;-89
2021/06/05 01:52:58;;;;;;;30.00;22.85;;;19.50;81.60;;;;;;5131587;28;20051;-90
2021/06/05 01:55:30;;;;;;;30.10;23.15;;;19.50;82.10;;;;;;5133437;27;20498;-89
2021/06/05 01:57:58;;;;;;;30.58;22.33;;;19.40;82.40;;;;;;5139474;27;20121;-89
2021/06/05 02:00:31;;;;;;;31.92;23.70;;;19.40;82.00;;;;;;5155012;27;20339;-89
2021/06/05 02:02:57;;;;;;;;;;;19.40;82.50;;;;;;5154360;27;20046;-89
2021/06/05 02:05:25;;;;;;;28.23;21.55;;;19.30;80.70;;;;;;5154714;27;20348;-89
2021/06/05 02:07:53;;;;;;;30.35;23.38;;;19.30;82.60;;;;;;5154583;27;20103;-89
2021/06/05 02:10:21;;;;;;;30.48;23.50;;;19.30;82.90;;;;;;5134711;27;20070;-89
2021/06/05 02:12:53;;;;;;;32.05;22.38;;;19.30;83.10;;;;;;5132818;28;20126;-89
2021/06/05 02:15:40;;;;;;;29.02;22.30;;;19.20;83.10;;;;;;5133966;27;20047;-90
2021/06/05 02:18:10;;;;;;;29.42;22.83;;;19.30;83.20;;;;;;5132842;27;20486;-89
2021/06/05 02:20:51;;;;;;;27.63;21.08;;;19.30;83.50;;;;;;5133803;27;20067;-88
2021/06/05 02:23:28;;;;;;;26.80;20.75;;;19.30;82.90;;;;;;5133624;27;20043;-89
2021/06/05 02:25:57;;;;;;;27.85;21.15;;;19.30;83.20;;;;;;5133255;27;20043;-89
2021/06/05 02:28:24;;;;;;;28.58;21.92;;;19.20;83.10;;;;;;5145539;27;20050;-89
2021/06/05 02:30:49;;;;;;;30.38;21.92;;;19.20;83.40;;;;;;5153610;27;20046;-89
2021/06/05 02:33:16;;;;;;;27.85;21.17;;;19.20;83.70;;;;;;5154133;27;20054;-89
2021/06/05 02:35:44;;;;;;;27.10;20.95;;;19.20;83.70;;;;;;5154494;27;20482;-89
2021/06/05 02:38:14;;;;;;;28.30;20.92;;;19.20;83.30;;;;;;5152546;27;20410;-90
2021/06/05 02:40:43;;;;;;;25.75;20.45;;;19.20;82.60;;;;;;5154346;27;20043;-89
2021/06/05 02:43:13;;;;;;;25.90;20.42;;;19.20;83.10;;;;;;5153871;27;20133;-90
2021/06/05 02:46:03;;;;;;;26.67;19.48;;;19.10;83.20;;;;;;5153578;27;20043;-90
2021/06/05 02:48:43;;;;;;;27.38;20.23;;;19.10;83.00;;;;;;5132554;27;20102;-90
2021/06/05 02:51:09;;;;;;;25.88;19.48;;;19.10;83.30;;;;;;5150551;27;20091;-89
2021/06/05 02:53:35;;;;;;;26.70;20.15;;;19.10;83.50;;;;;;5169505;27;20050;-89
2021/06/05 02:56:00;;;;;;;26.00;20.38;;;19.10;83.70;;;;;;5174023;27;20501;-90
2021/06/05 02:58:26;;;;;;;27.42;21.15;;;19.00;83.40;;;;;;5175175;27;20508;-90
2021/06/05 03:00:52;;;;;;;27.25;20.98;;;19.00;83.20;;;;;;5178557;27;20050;-89
2021/06/05 03:03:20;;;;;;;26.83;20.98;;;19.00;83.60;;;;;;5178936;27;20054;-89
2021/06/05 03:05:47;;;;;;;25.58;20.08;;;18.90;83.90;;;;;;5177973;27;20178;-89
2021/06/05 03:08:20;;;;;;;24.13;18.98;;;18.90;83.70;;;;;;5178320;27;20050;-90
2021/06/05 03:10:46;;;;;;;27.08;19.38;;;18.90;83.20;;;;;;5178867;27;20053;-90
2021/06/05 03:13:14;;;;;;;25.80;20.30;;;18.90;83.00;;;;;;5177500;27;20050;-89
2021/06/05 03:15:40;;;;;;;25.42;19.63;;;18.80;82.70;;;;;;5178651;27;20042;-89
2021/06/05 03:18:06;;;;;;;25.02;20.02;;;18.80;83.10;;;;;;5177736;27;20446;-89
2021/06/05 03:20:37;;;;;;;25.20;19.08;;;18.70;83.50;;;;;;5177684;27;20042;-89
2021/06/05 03:23:04;;;;;;;24.25;19.00;;;18.70;83.00;;;;;;5178275;27;20060;-89
2021/06/05 03:25:30;;;;;;;25.35;19.40;;;18.70;83.40;;;;;;5178578;27;20121;-90
2021/06/05 03:27:57;;;;;;;23.33;18.50;;;18.70;83.10;;;;;;5175638;27;20133;-91
2021/06/05 03:30:24;;;;;;;26.33;20.08;;;18.60;83.40;;;;;;5178515;27;20046;-90
2021/06/05 03:32:49;;;;;;;25.33;19.63;;;18.60;83.60;;;;;;5178150;27;20473;-89
2021/06/05 03:35:15;;;;;;;24.63;19.15;;;18.50;84.10;;;;;;5177185;27;20050;-90
2021/06/05 03:37:41;;;;;;;26.52;19.70;;;18.50;84.50;;;;;;5177926;27;20046;-90
2021/06/05 03:40:12;;;;;;;25.88;19.80;;;18.50;84.50;;;;;;5177958;27;20046;-89
2021/06/05 03:42:38;;;;;;;25.50;20.92;;;18.50;84.40;;;;;;5177346;27;20046;-89
2021/06/05 03:45:06;;;;;;;25.33;18.98;;;18.40;85.10;;;;;;5169000;27;20046;-89
2021/06/05 03:47:32;;;;;;;26.75;20.73;;;18.40;84.50;;;;;;5165216;27;20126;-90
2021/06/05 03:49:58;;;;;;;22.67;19.23;;;18.40;84.40;;;;;;5177230;27;20502;-89
2021/06/05 03:52:24;;;;;;;23.00;18.42;;;18.40;84.50;;;;;;5177552;27;20068;-89
2021/06/05 03:54:51;;;;;;;22.25;17.67;;;18.40;84.90;;;;;;5176835;27;20124;-91
2021/06/05 03:57:18;;;;;;;22.70;18.75;;;18.30;84.60;;;;;;5172689;27;20050;-89
2021/06/05 03:59:45;;;;;;;24.02;19.40;;;18.30;84.80;;;;;;5156687;27;20121;-89
2021/06/05 04:02:10;;;;;;;22.05;17.35;;;18.30;84.70;;;;;;5155768;27;20047;-90
2021/06/05 04:04:36;;;;;;;22.95;18.25;;;18.30;84.60;;;;;;5156794;27;20042;-90
2021/06/05 04:07:08;;;;;;;22.30;17.20;;;18.30;85.10;;;;;;5138551;27;20137;-89
2021/06/05 04:09:35;;;;;;;22.55;17.08;;;18.30;84.90;;;;;;5156173;27;20405;-90
2021/06/05 04:12:00;;;;;;;23.40;17.05;;;18.30;84.70;;;;;;5156303;27;20082;-89
2021/06/05 04:14:28;;;;;;;21.92;17.00;;;18.20;84.80;;;;;;5157397;27;20493;-89
2021/06/05 04:16:53;;;;;;;20.88;16.52;;;18.20;84.80;;;;;;5155764;27;20099;-89
2021/06/05 04:19:19;;;;;;;20.80;16.63;;;18.20;85.00;;;;;;5156609;27;20175;-88
2021/06/05 04:21:45;;;;;;;20.90;16.13;;;18.20;85.10;;;;;;5156419;27;20050;-90
2021/06/05 04:24:11;;;;;;;19.27;14.35;;;18.10;85.00;;;;;;5155421;27;20482;-89
2021/06/05 04:26:36;;;;;;;20.58;16.20;;;18.10;84.80;;;;;;5157065;27;20443;-89
2021/06/05 04:29:03;;;;;;;19.90;15.50;;;18.10;85.10;;;;;;5166898;27;20049;-90
2021/06/05 04:31:29;;;;;;;19.00;15.45;;;18.10;85.60;;;;;;5160577;27;20412;-89
2021/06/05 04:33:55;;;;;;;19.25;14.35;;;18.10;85.50;;;;;;5162833;27;20133;-88
2021/06/05 04:36:21;;;;;;;19.15;14.65;;;18.10;85.30;;;;;;5165709;27;20039;-89
2021/06/05 04:38:47;;;;;;;17.90;13.77;;;18.10;85.30;;;;;;5162247;27;20053;-90
2021/06/05 04:41:14;;;;;;;19.02;13.60;;;18.00;84.90;;;;;;5159865;27;20435;-85
2021/06/05 04:43:40;;;;;;;17.33;13.20;;;18.00;85.10;;;;;;5166236;27;20405;-85
2021/06/05 04:46:08;;;;;;;17.98;13.80;;;18.00;85.00;;;;;;5165027;27;20417;-87
2021/06/05 04:48:34;;;;;;;19.65;13.63;;;18.00;85.40;;;;;;5164431;27;20079;-86
2021/06/05 04:51:00;;;;;;;17.42;13.55;;;18.00;85.50;;;;;;5163672;27;20480;-86
2021/06/05 04:53:26;;;;;;;17.38;12.98;;;18.00;84.80;;;;;;5166031;27;20046;-85
2021/06/05 04:55:53;;;;;;;16.42;12.82;;;18.00;84.90;;;;;;5164738;27;20042;-85
2021/06/05 04:58:20;;;;;;;17.05;12.50;;;18.00;85.30;;;;;;5168150;27;20042;-83
2021/06/05 05:00:48;;;;;;;16.50;12.25;;;18.00;85.70;;;;;;5164392;27;20047;-84
2021/06/05 05:03:17;;;;;;;16.85;11.48;;;17.90;85.30;;;;;;5162472;27;20043;-82
2021/06/05 05:05:43;;;;;;;18.27;10.25;;;17.90;85.60;;;;;;5163591;27;20503;-84
2021/06/05 05:08:12;;;;;;;17.58;11.95;;;17.90;85.00;;;;;;5164464;27;20127;-85
2021/06/05 05:10:44;;;;;;;15.55;11.10;;;17.90;85.50;;;;;;5164211;27;20133;-84
2021/06/05 05:13:12;;;;;;;17.23;11.52;;;17.90;85.90;;;;;;5161838;27;20039;-84
2021/06/05 05:15:41;;;;;;;16.52;9.65;;;17.90;86.30;;;;;;5164222;27;20066;-86
2021/06/05 05:18:07;;;;;;;15.25;9.93;;;17.80;86.10;;;;;;5164719;27;20049;-85
2021/06/05 05:20:35;;;;;;;13.63;9.20;;;17.80;85.80;;;;;;5162100;27;20042;-84
2021/06/05 05:23:02;;;;;;;12.75;8.85;;;17.70;85.50;;;;;;5163525;27;20043;-84
2021/06/05 05:25:28;;;;;;;12.75;9.05;;;17.70;85.80;;;;;;5154823;27;20039;-85
2021/06/05 05:27:54;;;;;;;11.68;7.00;;;17.70;85.90;;;;;;5135796;27;20078;-87
2021/06/05 05:30:30;;;;;;;8.15;5.13;;;17.60;85.60;;;;;;5154964;27;20042;-85
2021/06/05 05:32:56;;;;;;;12.63;8.13;;;17.60;85.60;;;;;;5154917;27;20070;-85
2021/06/05 05:35:22;;;;;;;9.73;5.95;;;17.60;86.10;;;;;;5167178;27;20046;-84
2021/06/05 05:37:48;;;;;;;9.52;6.03;;;17.50;85.90;;;;;;5175476;27;20046;-82
2021/06/05 05:40:15;;;;;;;10.27;5.85;;;17.50;86.20;;;;;;5174791;27;20119;-82
2021/06/05 05:42:41;;;;;;;10.52;6.10;;;17.50;86.40;;;;;;5175461;27;20054;-82
2021/06/05 05:45:08;;;;;;;8.77;5.63;;;17.40;86.30;;;;;;5173632;27;20042;-83
2021/06/05 05:47:34;;;;;;;9.10;5.78;;;17.40;86.60;;;;;;5162737;27;20603;-83
2021/06/05 05:49:59;;;;;;;7.70;5.10;;;17.40;86.40;;;;;;5175412;27;20042;-84
2021/06/05 05:52:29;;;;;;;6.07;3.55;;;17.30;86.30;;;;;;5175323;27;20074;-83
2021/06/05 05:54:54;;;;;;;9.55;5.28;;;17.30;86.50;;;;;;5173813;27;20491;-86
2021/06/05 05:57:20;;;;;;;4.38;2.10;;;17.30;86.70;;;;;;5159518;27;20505;-85
2021/06/05 05:59:45;;;;;;;7.72;4.30;;;17.30;86.70;;;;;;5154674;27;20067;-87
2021/06/05 06:02:11;;;;;;;9.15;4.50;;;17.30;86.70;;;;;;5154398;27;20050;-86
2021/06/05 06:04:37;;;;;;;7.38;4.80;;;17.20;86.60;;;;;;5154316;27;20119;-85
2021/06/05 06:07:03;;;;;;;7.70;4.45;;;17.20;87.10;;;;;;5155115;27;20557;-87
2021/06/05 06:09:28;;;;;;;8.40;4.13;;;17.20;87.20;;;;;;5154471;27;20122;-88
2021/06/05 06:11:54;;;;;;;7.05;3.90;;;17.20;87.40;;;;;;5172727;27;20481;-87
2021/06/05 06:14:19;;;;;;;6.63;3.78;;;17.20;87.30;;;;;;5173377;27;20042;-87
2021/06/05 06:16:46;;;;;;;7.25;3.47;;;17.20;87.00;;;;;;5153881;27;20050;-87
2021/06/05 06:19:13;;;;;;;6.28;3.42;;;17.20;87.30;;;;;;5160162;27;20094;-86
2021/06/05 06:21:41;;;;;;;6.78;3.75;;;17.20;87.20;;;;;;5171304;27;20050;-87
2021/06/05 06:24:08;;;;;;;7.28;3.33;;;17.20;87.40;;;;;;5169151;27;20054;-87
2021/06/05 06:26:34;;;;;;;5.85;3.55;;;17.20;87.60;;;;;;5175068;27;20062;-87
2021/06/05 06:29:09;;;;;;;6.63;3.30;;;17.20;87.30;;;;;;5174918;27;20412;-89
2021/06/05 06:31:35;;;;;;;4.75;2.80;;;17.20;87.00;;;;;;5162268;27;20046;-89
2021/06/05 06:34:01;;;;;;;5.00;2.85;;;17.20;86.60;;;;;;5169643;27;20034;-89
2021/06/05 06:36:27;;;;;;;4.68;2.75;;;17.20;87.40;;;;;;5175894;27;20053;-90
2021/06/05 06:38:52;;;;;;;4.78;2.53;;;17.20;86.90;;;;;;5178312;27;20038;-89
2021/06/05 06:41:24;;;;;;;5.20;2.90;;;17.20;86.70;;;;;;5173272;27;20389;-90
2021/06/05 06:43:50;;;;;;;4.90;2.40;;;17.20;87.00;;;;;;5178328;27;20046;-90
2021/06/05 06:46:22;;;;;;;5.50;2.72;;;17.20;86.90;;;;;;5178341;27;20044;-88
2021/06/05 06:48:52;;;;;;;5.53;2.93;;;17.30;87.00;;;;;;5168632;27;20054;-89
2021/06/05 06:51:18;;;;;;;5.35;2.95;;;17.30;86.70;;;;;;5157599;27;20050;-90
2021/06/05 06:53:44;;;;;;;4.82;2.60;;;17.30;86.50;;;;;;5157682;27;20054;-84
2021/06/05 06:56:10;;;;;;;5.10;2.78;;;17.30;86.50;;;;;;5160115;27;20047;-84
2021/06/05 06:58:36;;;;;;;5.20;3.20;;;17.30;86.60;;;;;;5169837;27;20477;-84
2021/06/05 07:01:03;;;;;;;5.78;3.30;;;17.30;87.20;;;;;;5164898;27;20434;-85
2021/06/05 07:03:29;;;;;;;7.68;3.10;;;17.30;87.20;;;;;;5165760;27;20055;-84
2021/06/05 07:05:55;;;;;;;5.15;2.70;;;17.20;87.50;;;;;;5176925;27;20386;-84
2021/06/05 07:08:28;;;;;;;6.10;3.60;;;17.20;87.50;;;;;;5163100;27;20053;-85
2021/06/05 07:10:58;;;;;;;7.25;4.82;;;17.20;87.40;;;;;;5163047;27;20046;-84
2021/06/05 07:13:25;;;;;;;5.32;3.70;;;17.20;88.10;;;;;;5165658;27;20056;-87
2021/06/05 07:15:52;;;;;;;8.25;4.45;;;17.10;88.30;;;;;;5174547;27;20043;-88
2021/06/05 07:18:20;;;;;;;5.43;3.50;;;17.10;88.60;;;;;;5157003;27;20498;-89
2021/06/05 07:20:48;;;;;;;9.25;6.13;;;17.10;88.80;;;;;;5156514;27;20478;-89
2021/06/05 07:23:14;;;;;;;6.13;3.70;;;17.10;89.40;;;;;;5169800;27;20106;-91
2021/06/05 07:25:41;;;;;;;8.32;5.50;;;17.10;89.10;;;;;;5174428;27;20058;-90
2021/06/05 07:28:20;;;;;;;8.70;5.60;;;17.00;89.60;;;;;;5177478;27;20129;-88
2021/06/05 07:30:47;;;;;;;5.80;3.90;;;17.00;90.20;;;;;;5157990;27;20051;-93
2021/06/05 07:33:14;;;;;;;7.38;5.25;;;17.00;89.20;;;;;;5157170;27;20042;-92
2021/06/05 07:35:40;;;;;;;5.70;3.47;;;17.00;89.40;;;;;;5160073;27;20046;-91
2021/06/05 07:38:07;;;;;;;5.43;3.80;;;17.00;88.90;;;;;;5159857;27;20069;-92
2021/06/05 07:40:35;;;;;;;6.72;3.95;;;17.00;88.40;;;;;;5170754;27;20046;-89
2021/06/05 07:43:01;;;;;;;7.28;5.00;;;17.10;88.60;;;;;;5167437;27;20046;-90
2021/06/05 07:45:27;;;;;;;6.25;4.00;;;17.10;88.70;;;;;;5164990;27;20034;-90
2021/06/05 07:47:52;;;;;;;7.63;5.32;;;17.20;88.60;;;;;;5160364;27;20051;-90
2021/06/05 07:50:18;;;;;;;7.88;5.93;;;17.20;88.90;;;;;;5160510;27;20054;-95
2021/06/05 07:52:44;;;;;;;5.97;4.03;;;17.20;89.40;;;;;;5160431;27;20063;-96
2021/06/05 07:55:10;;;;;;;6.00;4.18;;;17.30;89.00;;;;;;5159040;27;20067;-92
2021/06/05 07:57:36;;;;;;;9.00;6.30;;;17.30;88.40;;;;;;5170858;27;20110;-95
2021/06/05 08:00:07;;;;;;;8.85;7.25;;;17.30;89.00;;;;;;5170902;27;20079;-94
2021/06/05 08:02:33;;;;;;;6.30;4.57;;;17.30;89.20;;;;;;5177448;27;20121;-95
2021/06/05 08:04:58;;;;;;;6.57;4.85;;;17.40;89.00;;;;;;5158970;27;20123;-93
2021/06/05 08:07:24;;;;;;;6.95;5.40;;;17.40;88.30;;;;;;5176996;27;20409;-92
2021/06/05 08:09:49;;;;;;;10.57;5.60;;;17.40;88.40;;;;;;5174891;27;20049;-93
2021/06/05 08:12:15;;;;;;;7.57;5.95;;;17.50;88.30;;;;;;5163938;27;20057;-93
2021/06/05 08:14:41;;;;;;;8.63;6.63;;;17.50;88.40;;;;;;5152607;27;20038;-92
2021/06/05 08:17:06;;;;;;;10.70;7.60;;;17.60;88.60;;;;;;5166327;27;20554;-93
2021/06/05 08:19:35;;;;;;;10.20;7.35;;;17.60;88.60;;;;;;5167927;27;20125;-92
2021/06/05 08:22:00;;;;;;;8.70;7.00;;;17.70;88.60;;;;;;5167024;27;20045;-93
2021/06/05 08:24:26;;;;;;;10.10;7.22;;;17.70;88.30;;;;;;5169573;27;20138;-94
2021/06/05 08:26:52;;;;;;;10.23;8.00;;;17.80;88.20;;;;;;5172078;27;20039;-96
2021/06/05 08:29:18;;;;;;;9.57;7.80;;;17.80;88.10;;;;;;5171553;27;20391;-94
2021/06/05 08:31:44;;;;;;;10.52;9.27;;;17.90;88.00;;;;;;5170135;27;20071;-95
2021/06/05 08:34:10;;;;;;;12.95;10.77;;;18.00;88.20;;;;;;5168533;27;20404;-93
2021/06/05 08:36:36;;;;;;;14.73;12.93;;;18.00;88.00;;;;;;5170078;27;20077;-91
2021/06/05 08:39:06;;;;;;;13.02;11.43;;;18.10;88.50;;;;;;5173178;27;20062;-95
2021/06/05 08:41:36;;;;;;;13.30;12.00;;;18.20;88.80;;;;;;5168115;27;20046;-92
2021/06/05 08:44:35;;;;;;;13.57;12.00;;;18.20;88.90;;;;;;5165032;27;20387;-91
2021/06/05 08:47:10;;;;;;;11.60;10.10;;;18.30;88.70;;;;;;5165714;27;20038;-90
2021/06/05 08:49:39;;;;;;;16.60;14.85;;;18.40;88.20;;;;;;5147309;27;20055;-90
2021/06/05 08:52:07;;;;;;;19.38;17.45;;;18.40;88.70;;;;;;5164121;27;20039;-91
2021/06/05 08:54:52;;;;;;;21.45;19.25;;;18.50;90.00;;;;;;5165382;27;20081;-91
2021/06/05 08:57:44;;;;;;;17.58;15.73;;;18.60;90.10;;;;;;5144753;27;20043;-90
2021/06/05 09:00:30;;;;;;;17.13;14.93;;;18.70;89.40;;;;;;5165670;27;20106;-90
2021/06/05 09:03:05;;;;;;;22.13;19.95;;;18.80;89.00;;;;;;5165708;27;20074;-93
2021/06/05 09:05:35;;;;;;;16.55;14.85;;;18.90;89.80;;;;;;5165342;27;20053;-89
2021/06/05 09:08:02;;;;;;;19.77;17.80;;;18.90;89.10;;;;;;5163681;27;20453;-89
2021/06/05 09:10:29;;;;;;;15.07;13.55;;;19.00;89.20;;;;;;5166386;27;20121;-90
2021/06/05 09:12:55;;;;;;;20.52;18.42;;;19.10;88.30;;;;;;5161952;27;20491;-89
2021/06/05 09:15:31;;;;;;;14.77;12.98;;;19.20;89.40;;;;;;5165083;27;20079;-90
2021/06/05 09:18:00;;;;;;;14.70;13.15;;;19.20;88.20;;;;;;5163836;27;20397;-90
2021/06/05 09:20:45;;;;;;;14.93;12.63;;;19.30;87.60;;;;;;5168121;27;20050;-88
2021/06/05 09:23:26;;;;;;;11.82;10.63;;;19.30;86.80;;;;;;5176180;27;20073;-90
2021/06/05 09:25:53;;;;;;;12.15;10.65;;;19.30;86.10;;;;;;5162188;27;20073;-91
2021/06/05 09:28:30;;;;;;;12.82;11.52;;;19.40;85.90;;;;;;5163142;27;20501;-90
2021/06/05 09:31:11;;;;;;;12.20;10.90;;;19.40;85.50;;;;;;5165349;27;20049;-91
2021/06/05 09:33:38;;;;;;;13.68;12.27;;;19.40;85.20;;;;;;5161527;27;20042;-89
2021/06/05 09:36:13;;;;;;;17.25;15.45;;;19.50;85.50;;;;;;5163830;27;20474;-90
2021/06/05 09:38:48;;;;;;;15.38;13.45;;;19.50;85.60;;;;;;5163271;27;20405;-89
2021/06/05 09:41:22;;;;;;;13.50;12.10;;;19.60;85.50;;;;;;5161735;27;20038;-88
2021/06/05 09:43:50;;;;;;;13.27;11.98;;;19.60;85.30;;;;;;5163227;27;20439;-89
2021/06/05 09:46:28;;;;;;;14.00;12.50;;;19.60;85.00;;;;;;5162762;27;20047;-89
2021/06/05 09:49:11;;;;;;;13.60;12.10;;;19.70;84.90;;;;;;5162460;27;20043;-89
2021/06/05 09:51:42;;;;;;;13.77;12.37;;;19.70;84.50;;;;;;5162855;27;20047;-89
2021/06/05 09:54:09;;;;;;;13.57;11.55;;;19.70;84.50;;;;;;5162016;27;20292;-89
2021/06/05 09:56:44;;;;;;;13.70;12.40;;;19.80;84.50;;;;;;5162595;27;20039;-89
2021/06/05 09:59:27;;;;;;;13.73;12.32;;;19.80;84.50;;;;;;5162254;27;20038;-88
2021/06/05 10:02:00;;;;;;;13.70;12.30;;;19.80;84.50;;;;;;5164335;27;20046;-88
2021/06/05 10:04:29;;;;;;;17.05;15.35;;;19.80;84.40;;;;;;5168445;27;20042;-90
2021/06/05 10:06:58;;;;;;;18.58;16.58;;;19.80;84.70;;;;;;5166116;27;20402;-91
2021/06/05 10:09:26;;;;;;;20.05;18.10;;;19.90;84.90;;;;;;5163428;27;20046;-92
2021/06/05 10:12:12;;;;;;;16.83;14.90;;;19.90;85.40;;;;;;5168634;27;20046;-92
2021/06/05 10:14:47;;;;;;;15.13;13.63;;;19.90;85.00;;;;;;5166745;27;20054;-91
2021/06/05 10:17:51;;;;;;;18.08;16.17;;;19.90;84.50;;;;;;5166335;27;20118;-91
2021/06/05 10:20:41;;;;;;;21.40;19.27;;;19.90;84.70;;;;;;5167615;27;20046;-91
2021/06/05 10:23:08;;;;;;;20.88;18.88;;;20.00;85.10;;;;;;5167964;27;20043;-90
2021/06/05 10:25:42;;;;;;;24.63;22.23;;;20.00;85.60;;;;;;5167167;27;20041;-91
2021/06/05 10:28:18;;;;;;;23.42;21.23;;;20.00;85.90;;;;;;5158783;27;20054;-89
2021/06/05 10:30:54;;;;;;;20.63;18.58;;;20.00;86.10;;;;;;5161237;27;20039;-92
2021/06/05 10:33:32;;;;;;;16.85;15.15;;;19.90;86.00;;;;;;5165881;27;20038;-90
2021/06/05 10:35:59;;;;;;;16.23;14.52;;;20.00;85.70;;;;;;5157735;27;20051;-88
2021/06/05 10:38:41;;;;;;;16.40;14.80;;;19.90;85.40;;;;;;5171553;27;20095;-92
2021/06/05 10:41:12;;;;;;;16.98;15.18;;;19.90;85.00;;;;;;5179398;27;20511;-92
2021/06/05 10:43:38;;;;;;;17.33;15.55;;;19.90;85.10;;;;;;5179600;27;20446;-93
2021/06/05 10:46:16;;;;;;;23.75;21.50;;;19.90;85.20;;;;;;5179191;27;20042;-93
2021/06/05 10:48:44;;;;;;;22.10;19.98;;;20.00;85.60;;;;;;5179275;27;20398;-90
2021/06/05 10:51:29;;;;;;;23.00;20.65;;;19.90;85.80;;;;;;5169414;27;20108;-90
2021/06/05 10:53:57;;;;;;;16.80;15.13;;;19.90;85.60;;;;;;5158178;27;20054;-88
2021/06/05 10:56:41;;;;;;;16.58;14.98;;;19.90;85.60;;;;;;5158031;27;20043;-91
2021/06/05 10:59:31;;;;;;;18.85;17.02;;;19.90;85.70;;;;;;5157426;27;20043;-91
2021/06/05 11:01:57;;;;;;;26.48;23.90;;;19.90;85.50;;;;;;5157833;27;20821;-89
2021/06/05 11:04:32;;;;;;;17.27;15.57;;;19.90;86.20;;;;;;5165644;27;20121;-90
2021/06/05 11:07:03;;;;;;;20.73;18.63;;;19.90;85.60;;;;;;5175329;27;20541;-90
2021/06/05 11:09:30;;;;;;;23.80;21.30;;;19.90;85.80;;;;;;5178600;27;20073;-88
2021/06/05 11:12:16;;;;;;;17.48;15.77;;;19.90;86.00;;;;;;5177353;27;20050;-88
2021/06/05 11:14:44;;;;;;;27.58;24.92;;;19.90;85.20;;;;;;5117595;27;20043;-87
2021/06/05 11:17:19;;;;;;;23.13;20.73;;;19.90;86.40;;;;;;5163818;27;20140;-88
2021/06/05 11:19:51;;;;;;;27.60;24.92;;;19.90;86.00;;;;;;5158517;27;20134;-88
2021/06/05 11:22:20;;;;;;;24.43;22.13;;;19.90;86.80;;;;;;5157934;27;20490;-86
2021/06/05 11:25:08;;;;;;;25.15;22.67;;;19.90;86.90;;;;;;5157258;27;20051;-88
2021/06/05 11:27:36;;;;;;;25.30;22.73;;;19.90;86.90;;;;;;5157699;27;20107;-87
2021/06/05 11:30:05;;;;;;;21.10;19.02;;;19.90;87.40;;;;;;5157206;27;20054;-87
2021/06/05 11:32:35;;;;;;;19.85;17.90;;;19.80;86.80;;;;;;5156549;27;20409;-88
2021/06/05 11:35:09;;;;;;;27.30;24.63;;;19.80;86.50;;;;;;5156939;27;20054;-88
2021/06/05 11:37:34;;;;;;;24.83;22.42;;;19.80;87.50;;;;;;5157305;27;20053;-89
2021/06/05 11:40:06;;;;;;;24.33;22.02;;;19.80;87.50;;;;;;5156370;27;20043;-88
2021/06/05 11:42:31;;;;;;;19.02;17.13;;;19.80;87.40;;;;;;5157256;27;20150;-89
2021/06/05 11:44:57;;;;;;;17.95;16.15;;;19.80;87.60;;;;;;5156803;27;20558;-89
2021/06/05 11:47:23;;;;;;;19.63;16.98;;;19.80;87.60;;;;;;5156562;27;20486;-88
2021/06/05 11:50:07;;;;;;;18.70;16.88;;;19.70;88.00;;;;;;5157027;27;20047;-87
2021/06/05 11:52:35;;;;;;;20.77;16.83;;;19.70;88.10;;;;;;5156570;27;20104;-89
2021/06/05 11:55:38;;;;;;;21.02;17.25;;;19.70;88.50;;;;;;5155723;27;20443;-88
2021/06/05 11:58:19;;;;;;;17.70;16.00;;;19.60;88.60;;;;;;5156830;27;20046;-87
2021/06/05 12:00:48;;;;;;;17.67;15.88;;;19.60;88.40;;;;;;5156002;27;20135;-89
2021/06/05 12:03:37;;;;;;;18.52;15.93;;;19.50;88.40;;;;;;5156229;27;20057;-88
2021/06/05 12:06:17;;;;;;;19.05;17.05;;;19.60;88.60;;;;;;5156793;27;20371;-88
2021/06/05 12:08:43;;;;;;;18.38;16.45;;;19.60;89.00;;;;;;5156232;27;20039;-87
2021/06/05 12:11:18;;;;;;;18.40;16.42;;;19.60;89.30;;;;;;5156105;27;20061;-89
2021/06/05 12:13:44;;;;;;;21.58;15.90;;;19.50;89.40;;;;;;5156812;27;20043;-88
2021/06/05 12:16:20;;;;;;;18.00;15.85;;;19.50;89.50;;;;;;5155249;27;20504;-91
2021/06/05 12:18:47;;;;;;;17.33;15.45;;;19.50;89.80;;;;;;5156684;27;20043;-88
2021/06/05 12:21:36;;;;;;;19.55;15.57;;;19.40;89.80;;;;;;5155659;27;20047;-88
2021/06/05 12:24:36;;;;;;;16.15;14.43;;;19.40;90.20;;;;;;5156233;27;20050;-89
2021/06/05 12:27:04;;;;;;;18.42;16.58;;;19.40;89.40;;;;;;5111850;27;20550;-89
2021/06/05 12:29:33;;;;;;;20.05;17.42;;;19.40;89.80;;;;;;5155634;27;20050;-87
2021/06/05 12:32:31;;;;;;;21.55;17.77;;;19.40;90.00;;;;;;5154874;27;20046;-87
2021/06/05 12:34:58;;;;;;;19.55;16.50;;;19.40;89.80;;;;;;5155226;27;20043;-88
2021/06/05 12:37:31;;;;;;;24.98;21.25;;;19.40;89.50;;;;;;5155037;27;20047;-90
2021/06/05 12:40:14;;;;;;;20.30;17.92;;;19.40;89.90;;;;;;5156010;27;20555;-87
2021/06/05 12:42:40;;;;;;;23.25;20.40;;;19.40;89.70;;;;;;5155318;27;20130;-89
2021/06/05 12:45:16;;;;;;;19.92;17.10;;;19.40;90.00;;;;;;5155682;27;20545;-87
2021/06/05 12:47:49;;;;;;;20.05;17.25;;;19.40;90.00;;;;;;5155807;27;20450;-88
2021/06/05 12:50:18;;;;;;;19.38;16.13;;;19.40;90.10;;;;;;5154895;27;20405;-87